Newburg, West Virginia
Current Conditions -  °F | °C
As of 4:53 PM on Monday 24 Nov 2014 (Local Time) from KMGW Reporting Station
Clear Clear  
Wind Chill: 67°   Ceiling: Unl
Heat Index: 67°   Visibility: 10mi
Dew Point: 36°   Wind: 16mph
Humidity: 32%   Direction: 230°SW
Pressure: 29.6"   Gusts: 26mph
Location:  39.39°N, 79.85°W
Report Text: KMGW 242153Z 23014G23KT 190V270 10SM CLR 19/02 A2960 RMK AO2 PK WND 23029/2059 SLP015 T01940022
Loading
Personal Weather Stations






























Interactive Weather Map New forecast layout! Learn more

10-Day Weather Forecast

Advertisements
Track Severe Weather on mobile